You are not logged in, Click here to log in
西雅圖-塔科馬國際機場SEA / KSEA 美國華盛頓州大西雅圖
ICAO: KSEA Country: 美國華盛頓州大西雅圖
Latitude: 47.4502 Longitude: -122.309
Total Arrivals: 13 Total Departures: 14
Latest Arrival: EN943 (PANC-KSEA)CHUANYI. Lin Latest Departure: CP5705 (KSEA-KSFO)Chun Tang. Chiang
Scenery:
METAR : KSEA 190353Z 01013KT 10SM CLR 04/M01 A3033 RMK AO2 SLP283 T00441011

西雅圖-塔科馬國際機場SEA

You are accessing this site from IP address 35.175.113.29. Virtual Airline. CMS by phpVMS.Website designed by Zumeweb and edited by Theo Bearman.
There is 0 User(s) Online: | and 2 Guest(s) Online.
All information on this site is for fight simulation purposes only. This site is for flight logging for pilots of Virtual Airline&模擬飛行論壇 FlySim only.